createdAt,value
2018-01-10T18:13:22.457Z,1004.21
2018-01-10T18:14:24.174Z,1004.22
2018-01-10T18:15:21.787Z,1004.25
2018-01-10T18:16:21.710Z,1004.27
2018-01-10T18:17:22.269Z,1004.32
2018-01-10T18:18:21.454Z,1004.25
2018-01-10T18:19:21.444Z,1004.26
2018-01-10T18:20:21.450Z,1004.24
2018-01-10T18:21:21.551Z,1004.24
2018-01-10T18:22:21.465Z,1004.26
2018-01-10T18:23:21.515Z,1004.24
2018-01-10T18:24:21.515Z,1004.24
2018-01-10T18:25:21.432Z,1004.23
2018-01-10T18:26:21.515Z,1004.23
2018-01-10T18:27:21.472Z,1004.22
2018-01-10T18:28:21.586Z,1004.25
2018-01-10T18:29:22.275Z,1004.23
2018-01-10T18:30:21.491Z,1004.27
2018-01-10T18:31:21.571Z,1004.25
2018-01-10T18:32:21.465Z,1004.26
2018-01-10T18:33:21.483Z,1004.30
2018-01-10T18:34:21.481Z,1004.29
2018-01-10T18:35:21.472Z,1004.30
2018-01-10T18:36:21.449Z,1004.32
2018-01-10T18:37:21.472Z,1004.35
2018-01-10T18:38:21.611Z,1004.35
2018-01-10T18:39:21.487Z,1004.35
2018-01-10T18:40:21.492Z,1004.33
2018-01-10T18:41:21.483Z,1004.35
2018-01-10T18:42:21.481Z,1004.37
2018-01-10T18:43:21.459Z,1004.38
2018-01-10T18:44:21.456Z,1004.38
2018-01-10T18:45:21.495Z,1004.36
2018-01-10T18:46:21.454Z,1004.42
2018-01-10T18:47:21.444Z,1004.42
2018-01-10T18:48:21.459Z,1004.41
2018-01-10T18:49:21.497Z,1004.44
2018-01-10T18:50:21.453Z,1004.43
2018-01-10T18:51:21.461Z,1004.42
2018-01-10T18:52:21.473Z,1004.47
2018-01-10T18:53:21.465Z,1004.48
2018-01-10T18:54:21.499Z,1004.46
2018-01-10T18:55:21.495Z,1004.47
2018-01-10T18:56:21.474Z,1004.48
2018-01-10T18:57:21.487Z,1004.48
2018-01-10T18:58:21.458Z,1004.47
2018-01-10T18:59:21.462Z,1004.52
2018-01-10T19:00:21.527Z,1004.50
2018-01-10T19:01:21.506Z,1004.53
2018-01-10T19:02:21.474Z,1004.50
2018-01-10T19:03:21.483Z,1004.52
2018-01-10T19:04:21.493Z,1004.53
2018-01-10T19:05:21.503Z,1004.53
2018-01-10T19:06:22.402Z,1004.52
2018-01-10T19:07:21.494Z,1004.56
2018-01-10T19:08:21.551Z,1004.54
2018-01-10T19:09:21.475Z,1004.51
2018-01-10T19:10:21.509Z,1004.53
2018-01-10T19:11:21.491Z,1004.51
2018-01-10T19:12:21.480Z,1004.51
2018-01-10T19:13:21.493Z,1004.52
2018-01-10T19:14:21.488Z,1004.49
2018-01-10T19:15:21.525Z,1004.50
2018-01-10T19:16:21.545Z,1004.55
2018-01-10T19:17:21.534Z,1004.51
2018-01-10T19:18:21.522Z,1004.51
2018-01-10T19:19:21.502Z,1004.48
2018-01-10T19:20:21.503Z,1004.50
2018-01-10T19:21:21.490Z,1004.50
2018-01-10T19:22:21.513Z,1004.52
2018-01-10T19:23:21.522Z,1004.52
2018-01-10T19:24:21.542Z,1004.51
2018-01-10T19:25:21.524Z,1004.51
2018-01-10T19:26:21.512Z,1004.51
2018-01-10T19:27:21.515Z,1004.48
2018-01-10T19:28:21.502Z,1004.51
2018-01-10T19:29:22.409Z,1004.50
2018-01-10T19:30:21.542Z,1004.52
2018-01-10T19:31:21.525Z,1004.57
2018-01-10T19:32:21.529Z,1004.53
2018-01-10T19:33:21.499Z,1004.53
2018-01-10T19:34:21.511Z,1004.54
2018-01-10T19:35:21.520Z,1004.54
2018-01-10T19:36:21.537Z,1004.59
2018-01-10T19:37:21.515Z,1004.57
2018-01-10T19:38:21.534Z,1004.54
2018-01-10T19:39:21.529Z,1004.59
2018-01-10T19:40:21.545Z,1004.58
2018-01-10T19:41:21.528Z,1004.59
2018-01-10T19:42:21.519Z,1004.59
2018-01-10T19:43:21.541Z,1004.61
2018-01-10T19:44:21.540Z,1004.60
2018-01-10T19:45:21.523Z,1004.57
2018-01-10T19:46:21.571Z,1004.62
2018-01-10T19:47:22.420Z,1004.62
2018-01-10T19:48:21.538Z,1004.63
2018-01-10T19:49:21.532Z,1004.65
2018-01-10T19:50:21.523Z,1004.68
2018-01-10T19:51:21.529Z,1004.68
2018-01-10T19:52:21.526Z,1004.68
2018-01-10T19:53:21.549Z,1004.68
2018-01-10T19:54:21.527Z,1004.68
2018-01-10T19:55:21.588Z,1004.70
2018-01-10T19:56:21.519Z,1004.68
2018-01-10T19:57:21.542Z,1004.69
2018-01-10T19:58:21.576Z,1004.67
2018-01-10T19:59:21.558Z,1004.69
2018-01-10T20:00:21.568Z,1004.70
2018-01-10T20:01:21.545Z,1004.70
2018-01-10T20:02:21.569Z,1004.69
2018-01-10T20:03:21.570Z,1004.72
2018-01-10T20:04:21.569Z,1004.68
2018-01-10T20:05:21.556Z,1004.72
2018-01-10T20:06:21.556Z,1004.75
2018-01-10T20:07:21.557Z,1004.76
2018-01-10T20:08:21.537Z,1004.75
2018-01-10T20:09:21.588Z,1004.75
2018-01-10T20:10:21.537Z,1004.74
2018-01-10T20:11:21.536Z,1004.77
2018-01-10T20:12:21.608Z,1004.79
2018-01-10T20:13:21.547Z,1004.78
2018-01-10T20:14:21.612Z,1004.80
2018-01-10T20:15:21.567Z,1004.81
2018-01-10T20:16:21.569Z,1004.80
2018-01-10T20:17:21.559Z,1004.85
2018-01-10T20:18:21.604Z,1004.81
2018-01-10T20:19:21.601Z,1004.86
2018-01-10T20:20:21.569Z,1004.87
2018-01-10T20:21:21.566Z,1004.88
2018-01-10T20:22:21.592Z,1004.85
2018-01-10T20:23:21.559Z,1004.86
2018-01-10T20:24:21.602Z,1004.87
2018-01-10T20:25:21.560Z,1004.84
2018-01-10T20:26:21.624Z,1004.86
2018-01-10T20:27:21.555Z,1004.90
2018-01-10T20:28:21.547Z,1004.87
2018-01-10T20:29:21.585Z,1004.88
2018-01-10T20:30:21.564Z,1004.88
2018-01-10T20:31:21.554Z,1004.93
2018-01-10T20:32:21.584Z,1004.91
2018-01-10T20:33:21.608Z,1004.92
2018-01-10T20:34:21.573Z,1004.91
2018-01-10T20:35:21.585Z,1004.94
2018-01-10T20:36:21.575Z,1004.92
2018-01-10T20:37:21.565Z,1004.96
2018-01-10T20:38:21.581Z,1004.93
2018-01-10T20:39:21.617Z,1004.95
2018-01-10T20:40:21.592Z,1004.94
2018-01-10T20:41:21.573Z,1004.93
2018-01-10T20:42:21.612Z,1004.95
2018-01-10T20:43:21.592Z,1004.94
2018-01-10T20:44:21.583Z,1004.97
2018-01-10T20:45:21.570Z,1005.00
2018-01-10T20:46:21.612Z,1004.99
2018-01-10T20:47:21.580Z,1004.97
2018-01-10T20:48:21.612Z,1004.95
2018-01-10T20:49:21.573Z,1004.96
2018-01-10T20:50:21.581Z,1004.99
2018-01-10T20:51:21.606Z,1004.96
2018-01-10T20:52:21.597Z,1004.98
2018-01-10T20:53:21.608Z,1004.97
2018-01-10T20:54:21.622Z,1004.98
2018-01-10T20:55:21.626Z,1005.00
2018-01-10T20:56:21.588Z,1005.01
2018-01-10T20:57:21.598Z,1005.03
2018-01-10T20:58:21.584Z,1005.02
2018-01-10T20:59:21.596Z,1004.98
2018-01-10T21:00:21.592Z,1005.02
2018-01-10T21:01:21.613Z,1005.00
2018-01-10T21:02:21.606Z,1005.04
2018-01-10T21:03:21.628Z,1005.06
2018-01-10T21:04:21.622Z,1005.08
2018-01-10T21:05:21.637Z,1005.08
2018-01-10T21:06:21.589Z,1005.10
2018-01-10T21:07:21.601Z,1005.12
2018-01-10T21:08:21.614Z,1005.12
2018-01-10T21:09:21.631Z,1005.14
2018-01-10T21:10:21.622Z,1005.15
2018-01-10T21:11:21.614Z,1005.15
2018-01-10T21:12:21.611Z,1005.17
2018-01-10T21:13:21.600Z,1005.14
2018-01-10T21:14:21.608Z,1005.12
2018-01-10T21:15:21.610Z,1005.14
2018-01-10T21:16:21.629Z,1005.19
2018-01-10T21:17:21.599Z,1005.20
2018-01-10T21:18:21.677Z,1005.17
2018-01-10T21:19:21.637Z,1005.16
2018-01-10T21:20:21.689Z,1005.19
2018-01-10T21:21:21.608Z,1005.15
2018-01-10T21:22:21.629Z,1005.16
2018-01-10T21:23:21.613Z,1005.17
2018-01-10T21:24:21.608Z,1005.14
2018-01-10T21:25:21.611Z,1005.14
2018-01-10T21:26:21.644Z,1005.15
2018-01-10T21:27:21.744Z,1005.13
2018-01-10T21:28:21.664Z,1005.15
2018-01-10T21:29:21.708Z,1005.15
2018-01-10T21:30:21.626Z,1005.15
2018-01-10T21:31:21.653Z,1005.17
2018-01-10T21:32:21.665Z,1005.14
2018-01-10T21:33:21.683Z,1005.13
2018-01-10T21:34:21.656Z,1005.14
2018-01-10T21:35:21.623Z,1005.13
2018-01-10T21:36:21.626Z,1005.12
2018-01-10T21:37:21.662Z,1005.13
2018-01-10T21:38:21.635Z,1005.14
2018-01-10T21:39:21.642Z,1005.06
2018-01-10T21:40:21.651Z,1005.10
2018-01-10T21:41:21.641Z,1005.11
2018-01-10T21:42:21.634Z,1005.14
2018-01-10T21:43:21.671Z,1005.11
2018-01-10T21:44:21.706Z,1005.13
2018-01-10T21:45:21.674Z,1005.12
2018-01-10T21:46:21.689Z,1005.16
2018-01-10T21:47:21.667Z,1005.17
2018-01-10T21:48:21.661Z,1005.13
2018-01-10T21:49:21.648Z,1005.18
2018-01-10T21:50:21.639Z,1005.17
2018-01-10T21:51:21.650Z,1005.12
2018-01-10T21:52:21.658Z,1005.14
2018-01-10T21:53:21.688Z,1005.15
2018-01-10T21:54:21.647Z,1005.16
2018-01-10T21:55:21.690Z,1005.16
2018-01-10T21:56:21.671Z,1005.18
2018-01-10T21:57:21.670Z,1005.15
2018-01-10T21:58:21.690Z,1005.15
2018-01-10T21:59:21.663Z,1005.19
2018-01-10T22:00:21.727Z,1005.20
2018-01-10T22:01:21.697Z,1005.18
2018-01-10T22:02:21.702Z,1005.14
2018-01-10T22:03:21.705Z,1005.16
2018-01-10T22:04:21.708Z,1005.19
2018-01-10T22:05:21.678Z,1005.17
2018-01-10T22:06:21.691Z,1005.19
2018-01-10T22:07:21.722Z,1005.17
2018-01-10T22:08:21.694Z,1005.18
2018-01-10T22:09:21.681Z,1005.18
2018-01-10T22:10:21.702Z,1005.21
2018-01-10T22:11:21.701Z,1005.19
2018-01-10T22:12:21.689Z,1005.15
2018-01-10T22:13:21.724Z,1005.15
2018-01-10T22:14:21.688Z,1005.16
2018-01-10T22:15:21.691Z,1005.17
2018-01-10T22:16:21.693Z,1005.14
2018-01-10T22:17:21.712Z,1005.14
2018-01-10T22:18:21.714Z,1005.14
2018-01-10T22:19:21.699Z,1005.13
2018-01-10T22:20:21.715Z,1005.15
2018-01-10T22:21:21.710Z,1005.17
2018-01-10T22:22:21.717Z,1005.14
2018-01-10T22:23:21.704Z,1005.14
2018-01-10T22:24:21.693Z,1005.22
2018-01-10T22:25:21.693Z,1005.17
2018-01-10T22:26:21.695Z,1005.15
2018-01-10T22:27:21.691Z,1005.15
2018-01-10T22:28:21.715Z,1005.19
2018-01-10T22:29:21.714Z,1005.20
2018-01-10T22:30:21.743Z,1005.16
2018-01-10T22:31:21.730Z,1005.17
2018-01-10T22:32:21.713Z,1005.18
2018-01-10T22:33:21.704Z,1005.14
2018-01-10T22:34:21.717Z,1005.19
2018-01-10T22:35:21.770Z,1005.20
2018-01-10T22:36:21.726Z,1005.18
2018-01-10T22:37:21.738Z,1005.15
2018-01-10T22:38:21.706Z,1005.17
2018-01-10T22:39:21.771Z,1005.17
2018-01-10T22:40:21.727Z,1005.17
2018-01-10T22:41:21.727Z,1005.19
2018-01-10T22:42:21.784Z,1005.19
2018-01-10T22:43:21.733Z,1005.16
2018-01-10T22:44:21.710Z,1005.17
2018-01-10T22:45:21.719Z,1005.16
2018-01-10T22:46:21.720Z,1005.15
2018-01-10T22:47:21.724Z,1005.14
2018-01-10T22:48:21.766Z,1005.21
2018-01-10T22:49:21.747Z,1005.18
2018-01-10T22:50:21.732Z,1005.21
2018-01-10T22:51:21.750Z,1005.18
2018-01-10T22:52:21.755Z,1005.22
2018-01-10T22:53:21.756Z,1005.22
2018-01-10T22:54:21.721Z,1005.29
2018-01-10T22:55:21.760Z,1005.29
2018-01-10T22:56:21.730Z,1005.32
2018-01-10T22:57:21.726Z,1005.31
2018-01-10T22:58:21.750Z,1005.36
2018-01-10T22:59:21.734Z,1005.40
2018-01-10T23:00:21.763Z,1005.38
2018-01-10T23:01:21.748Z,1005.39
2018-01-10T23:02:21.743Z,1005.38
2018-01-10T23:03:21.746Z,1005.40
2018-01-10T23:04:21.724Z,1005.43
2018-01-10T23:05:21.787Z,1005.42
2018-01-10T23:06:21.742Z,1005.39
2018-01-10T23:07:21.743Z,1005.40
2018-01-10T23:08:21.752Z,1005.38
2018-01-10T23:09:21.745Z,1005.36
2018-01-10T23:10:21.749Z,1005.37
2018-01-10T23:11:21.746Z,1005.39
2018-01-10T23:12:21.750Z,1005.40
2018-01-10T23:13:21.798Z,1005.41
2018-01-10T23:14:21.760Z,1005.43
2018-01-10T23:15:21.735Z,1005.43
2018-01-10T23:16:21.797Z,1005.40
2018-01-10T23:17:21.752Z,1005.44
2018-01-10T23:18:21.793Z,1005.40
2018-01-10T23:19:21.763Z,1005.44
2018-01-10T23:20:21.757Z,1005.42
2018-01-10T23:21:21.788Z,1005.39
2018-01-10T23:22:21.770Z,1005.44
2018-01-10T23:23:21.797Z,1005.41
2018-01-10T23:24:21.763Z,1005.46
2018-01-10T23:25:21.768Z,1005.47
2018-01-10T23:26:21.764Z,1005.49
2018-01-10T23:27:21.787Z,1005.52
2018-01-10T23:28:21.762Z,1005.53
2018-01-10T23:29:21.768Z,1005.50
2018-01-10T23:30:21.788Z,1005.49
2018-01-10T23:31:21.761Z,1005.54
2018-01-10T23:32:21.762Z,1005.56
2018-01-10T23:33:21.798Z,1005.57
2018-01-10T23:34:21.767Z,1005.56
2018-01-10T23:35:21.778Z,1005.57
2018-01-10T23:36:21.774Z,1005.61
2018-01-10T23:37:21.766Z,1005.57
2018-01-10T23:38:21.766Z,1005.60
2018-01-10T23:39:21.802Z,1005.61
2018-01-10T23:40:21.781Z,1005.62
2018-01-10T23:41:21.843Z,1005.59
2018-01-10T23:42:21.784Z,1005.59
2018-01-10T23:43:21.764Z,1005.60
2018-01-10T23:44:21.787Z,1005.58
2018-01-10T23:45:21.808Z,1005.62
2018-01-10T23:46:21.801Z,1005.63
2018-01-10T23:47:21.776Z,1005.64
2018-01-10T23:48:21.809Z,1005.67
2018-01-10T23:49:22.474Z,1005.68
2018-01-10T23:50:21.790Z,1005.65
2018-01-10T23:51:21.806Z,1005.67
2018-01-10T23:52:21.773Z,1005.70
2018-01-10T23:53:21.787Z,1005.66
2018-01-10T23:54:21.791Z,1005.70
2018-01-10T23:55:21.815Z,1005.72
2018-01-10T23:56:21.811Z,1005.71
2018-01-10T23:57:21.807Z,1005.71
2018-01-10T23:58:21.820Z,1005.71
2018-01-10T23:59:21.815Z,1005.75
